Skip Navigation Links
Home and Info
Weather Forecast
Mountsorrel Weather
Climate Reports
Fun Stuff
Storm Chasing Pictures
Weather Tools
Me Only!
Stormchaser Mountsorrel Leicester current Weather StormChaser Mountsorrel Leicester current Weather


30 July 2016 Climate report for Mountsorrel.

 

Mountsorrel Weather Climate values are an adverage reading taken during the hour before the one displayed.

The bottom value is the Mean or Total of all the values during the day.


TimeAir TempGround TempDew PointRH%RainSun MinutesWind RunWind HiWind Dir BarometerWxWxTxt
Jul 30 2016 11:00PM 14.2 10.3 8.8 70 --- --- 5 9 NWWind direction 1013.9 Mostly Clouds Mostly Clouds
Jul 30 2016 10:00PM 15.5 11.5 9.3 66 --- --- 5 9 NWWind direction 1013.7 Mostly Clouds Mostly Clouds
Jul 30 2016 9:00PM 17.2 14.0 9.3 59 --- 53 7 10 NNWWind direction 1013.2 Mostly Clouds Mostly Clouds
Jul 30 2016 8:00PM 19.3 21.0 9.3 52 --- 32 9 13 NNWWind direction 1012.8 Mostly Clouds Mostly Clouds
Jul 30 2016 7:00PM 20.1 27.9 9.1 49 --- 40 8 14 NNWWind direction 1012.7 Mostly Clouds Mostly Clouds
Jul 30 2016 6:00PM 20.9 36.7 9.2 47 --- 53 9 16 NWWind direction 1012.7 Mostly Clouds Mostly Clouds
Jul 30 2016 5:00PM 19.6 27.8 9.4 51 --- --- 10 13 NNWWind direction 1012.7 Mostly Clouds Mostly Clouds
Jul 30 2016 4:00PM 19.1 26.0 10.1 55 --- --- 9 12 NWWind direction 1012.7 Mostly Clouds Mostly Clouds
Jul 30 2016 3:00PM 19.5 29.6 10.2 54 --- --- 10 15 NNWWind direction 1012.6 Mostly Clouds Mostly Clouds
Jul 30 2016 2:00PM 19.3 28.5 10.5 56 --- --- 8 12 NWWind direction 1012.4 Mostly Clouds Mostly Clouds
Jul 30 2016 1:00PM 19.9 35.7 10.5 54 --- 21 9 14 NNWWind direction 1012.3 Mostly Clouds Mostly Clouds
Jul 30 2016 12:00PM 19.2 32.5 10.5 56 --- 11 7 13 NNWWind direction 1012.2 Mostly Clouds Mostly Clouds
Jul 30 2016 11:00AM 18.4 25.1 11.0 61 --- 22 7 11 NWWind direction 1012.2 Mostly Clouds Mostly Clouds
Jul 30 2016 10:00AM 17.1 19.9 11.6 70 --- 3 6 10 NNWWind direction 1012.2 Mostly Clouds Mostly Clouds
Jul 30 2016 9:00AM 15.5 14.3 11.6 77 --- --- 8 11 NNWWind direction 1012.0 Mostly Clouds Mostly Clouds
Jul 30 2016 8:00AM 14.0 12.6 12.1 88 --- --- 7 14 NWWind direction 1011.7 Mostly Clouds Mostly Clouds
Jul 30 2016 7:00AM 12.7 10.9 11.7 93 --- --- 4 9 NWWind direction 1011.4 Mostly Clouds Mostly Clouds
Jul 30 2016 6:00AM 12.0 8.6 10.8 92 --- --- 1 6 WNWWind direction 1011.3 Mostly Clouds Mostly Clouds
Jul 30 2016 5:00AM 12.5 8.5 10.9 90 --- --- 0 0 ---Wind direction 1011.2 Mostly Clouds Mostly Clouds
Jul 30 2016 4:00AM 13.4 10.6 11.6 89 --- --- 4 8 NWWind direction 1011.1 Mostly Clouds Mostly Clouds
Jul 30 2016 3:00AM 13.6 11.3 11.9 89 --- --- 4 9 NWWind direction 1011.1 Mostly Clouds Mostly Clouds
Jul 30 2016 2:00AM 18.6 20.0 14.7 78 --- 1 0 6 WNWWind direction 1009.0 Mostly Clouds Mostly Clouds
Jul 30 2016 1:00AM --- ---  Wind direction
Totals 16.9 20.2 10.6 68 0.0 03:56 137    1012.1   








The Mountsorrel Weather Station is located in Mountsorrel which is just South of Loughborough and just North of Leicester in Leicestershire.
It is maintained by Stormchaser Stuart Robinson whose passion is for all type of weather but especially the more severe types of weather such as Hurricanes, Typhoon and Tornadoes.